sensor_id;sensor_type;location;lat;lon;timestamp;P1;durP1;ratioP1;P2;durP2;ratioP2
8757;SDS011;4415;42.152;24.744;2023-10-09T00:00:05;5.50;;;2.63;;
8757;SDS011;4415;42.152;24.744;2023-10-09T00:03:00;6.53;;;2.70;;
8757;SDS011;4415;42.152;24.744;2023-10-09T00:05:26;7.53;;;2.37;;
8757;SDS011;4415;42.152;24.744;2023-10-09T00:08:03;7.67;;;2.43;;
8757;SDS011;4415;42.152;24.744;2023-10-09T00:10:29;8.27;;;2.90;;
8757;SDS011;4415;42.152;24.744;2023-10-09T00:13:01;7.13;;;2.63;;
8757;SDS011;4415;42.152;24.744;2023-10-09T00:15:27;4.53;;;2.53;;
8757;SDS011;4415;42.152;24.744;2023-10-09T00:17:53;7.57;;;2.73;;
8757;SDS011;4415;42.152;24.744;2023-10-09T00:20:21;6.77;;;2.77;;
8757;SDS011;4415;42.152;24.744;2023-10-09T00:22:50;7.47;;;3.17;;
8757;SDS011;4415;42.152;24.744;2023-10-09T00:25:16;8.67;;;2.70;;
8757;SDS011;4415;42.152;24.744;2023-10-09T00:27:48;8.23;;;2.80;;
8757;SDS011;4415;42.152;24.744;2023-10-09T00:30:14;7.57;;;3.10;;
8757;SDS011;4415;42.152;24.744;2023-10-09T00:32:42;12.33;;;3.20;;
8757;SDS011;4415;42.152;24.744;2023-10-09T00:35:15;6.60;;;2.50;;
8757;SDS011;4415;42.152;24.744;2023-10-09T00:37:59;5.67;;;2.50;;
8757;SDS011;4415;42.152;24.744;2023-10-09T00:40:31;10.57;;;3.00;;
8757;SDS011;4415;42.152;24.744;2023-10-09T00:42:59;5.03;;;2.47;;
8757;SDS011;4415;42.152;24.744;2023-10-09T00:45:30;7.90;;;3.27;;
8757;SDS011;4415;42.152;24.744;2023-10-09T00:47:57;12.27;;;3.03;;
8757;SDS011;4415;42.152;24.744;2023-10-09T00:50:24;8.83;;;2.80;;
8757;SDS011;4415;42.152;24.744;2023-10-09T00:52:52;9.03;;;2.70;;
8757;SDS011;4415;42.152;24.744;2023-10-09T00:55:19;15.60;;;3.07;;
8757;SDS011;4415;42.152;24.744;2023-10-09T00:58:14;7.70;;;2.43;;
8757;SDS011;4415;42.152;24.744;2023-10-09T01:00:41;7.00;;;2.10;;
8757;SDS011;4415;42.152;24.744;2023-10-09T01:03:10;7.97;;;2.70;;
8757;SDS011;4415;42.152;24.744;2023-10-09T01:05:42;7.17;;;2.10;;
8757;SDS011;4415;42.152;24.744;2023-10-09T01:08:21;3.97;;;1.77;;
8757;SDS011;4415;42.152;24.744;2023-10-09T01:10:54;6.23;;;2.30;;
8757;SDS011;4415;42.152;24.744;2023-10-09T01:13:24;3.37;;;1.93;;
8757;SDS011;4415;42.152;24.744;2023-10-09T01:16:05;5.33;;;2.03;;
8757;SDS011;4415;42.152;24.744;2023-10-09T01:18:30;5.93;;;2.10;;
8757;SDS011;4415;42.152;24.744;2023-10-09T01:21:01;5.27;;;2.03;;
8757;SDS011;4415;42.152;24.744;2023-10-09T01:23:27;2.77;;;1.60;;
8757;SDS011;4415;42.152;24.744;2023-10-09T01:25:54;3.17;;;1.80;;
8757;SDS011;4415;42.152;24.744;2023-10-09T01:28:19;4.80;;;1.93;;
8757;SDS011;4415;42.152;24.744;2023-10-09T01:30:45;1.67;;;1.57;;
8757;SDS011;4415;42.152;24.744;2023-10-09T01:33:12;2.07;;;1.87;;
8757;SDS011;4415;42.152;24.744;2023-10-09T01:35:40;1.70;;;1.40;;
8757;SDS011;4415;42.152;24.744;2023-10-09T01:38:12;3.30;;;1.70;;
8757;SDS011;4415;42.152;24.744;2023-10-09T01:40:40;3.60;;;1.50;;
8757;SDS011;4415;42.152;24.744;2023-10-09T01:43:05;3.00;;;1.87;;
8757;SDS011;4415;42.152;24.744;2023-10-09T01:45:35;3.07;;;1.33;;
8757;SDS011;4415;42.152;24.744;2023-10-09T01:48:07;5.70;;;2.03;;
8757;SDS011;4415;42.152;24.744;2023-10-09T01:50:33;6.17;;;2.17;;
8757;SDS011;4415;42.152;24.744;2023-10-09T01:53:00;3.53;;;2.40;;
8757;SDS011;4415;42.152;24.744;2023-10-09T01:55:31;3.80;;;2.27;;
8757;SDS011;4415;42.152;24.744;2023-10-09T01:58:06;6.57;;;2.67;;
8757;SDS011;4415;42.152;24.744;2023-10-09T02:00:47;4.90;;;2.70;;
8757;SDS011;4415;42.152;24.744;2023-10-09T02:03:19;4.10;;;2.33;;
8757;SDS011;4415;42.152;24.744;2023-10-09T02:05:50;7.63;;;2.67;;
8757;SDS011;4415;42.152;24.744;2023-10-09T02:08:16;5.07;;;3.07;;
8757;SDS011;4415;42.152;24.744;2023-10-09T02:10:46;4.20;;;3.00;;
8757;SDS011;4415;42.152;24.744;2023-10-09T02:13:13;8.07;;;3.20;;
8757;SDS011;4415;42.152;24.744;2023-10-09T02:15:42;3.87;;;2.97;;
8757;SDS011;4415;42.152;24.744;2023-10-09T02:18:14;4.30;;;3.20;;
8757;SDS011;4415;42.152;24.744;2023-10-09T02:20:46;6.57;;;3.27;;
8757;SDS011;4415;42.152;24.744;2023-10-09T02:23:29;7.43;;;3.17;;
8757;SDS011;4415;42.152;24.744;2023-10-09T02:26:13;19.33;;;3.57;;
8757;SDS011;4415;42.152;24.744;2023-10-09T02:28:50;18.93;;;3.10;;
8757;SDS011;4415;42.152;24.744;2023-10-09T02:31:25;15.77;;;2.90;;
8757;SDS011;4415;42.152;24.744;2023-10-09T02:34:01;12.50;;;3.10;;
8757;SDS011;4415;42.152;24.744;2023-10-09T02:36:30;11.17;;;2.40;;
8757;SDS011;4415;42.152;24.744;2023-10-09T02:38:56;15.90;;;2.67;;
8757;SDS011;4415;42.152;24.744;2023-10-09T02:41:21;14.00;;;2.20;;
8757;SDS011;4415;42.152;24.744;2023-10-09T02:43:47;4.27;;;2.00;;
8757;SDS011;4415;42.152;24.744;2023-10-09T02:46:15;9.27;;;2.00;;
8757;SDS011;4415;42.152;24.744;2023-10-09T02:48:48;9.63;;;2.23;;
8757;SDS011;4415;42.152;24.744;2023-10-09T02:51:16;5.10;;;1.70;;
8757;SDS011;4415;42.152;24.744;2023-10-09T02:54:07;10.07;;;2.40;;
8757;SDS011;4415;42.152;24.744;2023-10-09T02:56:43;3.37;;;1.80;;
8757;SDS011;4415;42.152;24.744;2023-10-09T02:59:08;10.33;;;2.10;;
8757;SDS011;4415;42.152;24.744;2023-10-09T03:01:34;10.47;;;2.20;;
8757;SDS011;4415;42.152;24.744;2023-10-09T03:04:00;5.50;;;1.50;;
8757;SDS011;4415;42.152;24.744;2023-10-09T03:06:27;4.57;;;1.90;;
8757;SDS011;4415;42.152;24.744;2023-10-09T03:08:56;6.20;;;1.50;;
8757;SDS011;4415;42.152;24.744;2023-10-09T03:11:21;5.90;;;1.87;;
8757;SDS011;4415;42.152;24.744;2023-10-09T03:13:48;11.77;;;1.57;;
8757;SDS011;4415;42.152;24.744;2023-10-09T03:16:13;5.07;;;1.70;;
8757;SDS011;4415;42.152;24.744;2023-10-09T03:18:45;2.90;;;1.70;;
8757;SDS011;4415;42.152;24.744;2023-10-09T03:21:12;7.27;;;2.07;;
8757;SDS011;4415;42.152;24.744;2023-10-09T03:23:37;5.57;;;1.70;;
8757;SDS011;4415;42.152;24.744;2023-10-09T03:26:03;4.50;;;1.60;;
8757;SDS011;4415;42.152;24.744;2023-10-09T03:28:29;2.57;;;1.53;;
8757;SDS011;4415;42.152;24.744;2023-10-09T03:30:54;2.70;;;1.40;;
8757;SDS011;4415;42.152;24.744;2023-10-09T03:33:19;9.57;;;1.80;;
8757;SDS011;4415;42.152;24.744;2023-10-09T03:35:45;6.27;;;1.50;;
8757;SDS011;4415;42.152;24.744;2023-10-09T03:38:10;5.83;;;1.80;;
8757;SDS011;4415;42.152;24.744;2023-10-09T03:40:45;4.33;;;1.87;;
8757;SDS011;4415;42.152;24.744;2023-10-09T03:43:13;8.10;;;1.50;;
8757;SDS011;4415;42.152;24.744;2023-10-09T03:45:39;5.97;;;1.57;;
8757;SDS011;4415;42.152;24.744;2023-10-09T03:48:17;4.73;;;1.53;;
8757;SDS011;4415;42.152;24.744;2023-10-09T03:50:56;4.57;;;1.73;;
8757;SDS011;4415;42.152;24.744;2023-10-09T03:53:36;5.80;;;1.70;;
8757;SDS011;4415;42.152;24.744;2023-10-09T03:56:02;1.73;;;1.00;;
8757;SDS011;4415;42.152;24.744;2023-10-09T03:58:34;4.17;;;1.50;;
8757;SDS011;4415;42.152;24.744;2023-10-09T04:00:59;3.50;;;1.50;;
8757;SDS011;4415;42.152;24.744;2023-10-09T04:03:25;3.97;;;1.33;;
8757;SDS011;4415;42.152;24.744;2023-10-09T04:05:50;3.67;;;1.40;;
8757;SDS011;4415;42.152;24.744;2023-10-09T04:08:18;7.00;;;1.40;;
8757;SDS011;4415;42.152;24.744;2023-10-09T04:10:53;8.97;;;2.07;;
8757;SDS011;4415;42.152;24.744;2023-10-09T04:13:19;6.20;;;1.80;;
8757;SDS011;4415;42.152;24.744;2023-10-09T04:15:50;7.93;;;1.57;;
8757;SDS011;4415;42.152;24.744;2023-10-09T04:18:18;5.07;;;1.47;;
8757;SDS011;4415;42.152;24.744;2023-10-09T04:20:43;6.53;;;1.50;;
8757;SDS011;4415;42.152;24.744;2023-10-09T04:23:09;4.17;;;1.63;;
8757;SDS011;4415;42.152;24.744;2023-10-09T04:25:41;3.03;;;1.37;;
8757;SDS011;4415;42.152;24.744;2023-10-09T04:28:12;5.47;;;1.70;;
8757;SDS011;4415;42.152;24.744;2023-10-09T04:30:40;1.47;;;1.37;;
8757;SDS011;4415;42.152;24.744;2023-10-09T04:33:08;5.60;;;1.20;;
8757;SDS011;4415;42.152;24.744;2023-10-09T04:35:52;6.40;;;1.93;;
8757;SDS011;4415;42.152;24.744;2023-10-09T04:38:38;3.60;;;1.33;;
8757;SDS011;4415;42.152;24.744;2023-10-09T04:41:06;2.23;;;1.00;;
8757;SDS011;4415;42.152;24.744;2023-10-09T04:43:33;2.27;;;1.80;;
8757;SDS011;4415;42.152;24.744;2023-10-09T04:45:58;7.00;;;1.10;;
8757;SDS011;4415;42.152;24.744;2023-10-09T04:48:37;2.30;;;1.70;;
8757;SDS011;4415;42.152;24.744;2023-10-09T04:51:06;2.57;;;1.20;;
8757;SDS011;4415;42.152;24.744;2023-10-09T04:53:49;3.97;;;1.80;;
8757;SDS011;4415;42.152;24.744;2023-10-09T04:56:47;4.30;;;1.40;;
8757;SDS011;4415;42.152;24.744;2023-10-09T04:59:18;4.57;;;1.70;;
8757;SDS011;4415;42.152;24.744;2023-10-09T05:01:44;5.03;;;1.87;;
8757;SDS011;4415;42.152;24.744;2023-10-09T05:04:11;4.40;;;1.30;;
8757;SDS011;4415;42.152;24.744;2023-10-09T05:07:12;6.13;;;1.70;;
8757;SDS011;4415;42.152;24.744;2023-10-09T05:10:00;7.47;;;1.80;;
8757;SDS011;4415;42.152;24.744;2023-10-09T05:12:40;3.60;;;1.73;;
8757;SDS011;4415;42.152;24.744;2023-10-09T05:15:11;3.40;;;1.60;;
8757;SDS011;4415;42.152;24.744;2023-10-09T05:17:38;6.00;;;1.50;;
8757;SDS011;4415;42.152;24.744;2023-10-09T05:20:04;2.37;;;1.33;;
8757;SDS011;4415;42.152;24.744;2023-10-09T05:22:48;3.97;;;1.37;;
8757;SDS011;4415;42.152;24.744;2023-10-09T05:25:26;2.60;;;1.60;;
8757;SDS011;4415;42.152;24.744;2023-10-09T05:28:10;2.10;;;1.53;;
8757;SDS011;4415;42.152;24.744;2023-10-09T05:30:59;3.37;;;1.50;;
8757;SDS011;4415;42.152;24.744;2023-10-09T05:33:34;3.53;;;1.93;;
8757;SDS011;4415;42.152;24.744;2023-10-09T05:36:02;6.63;;;1.70;;
8757;SDS011;4415;42.152;24.744;2023-10-09T05:38:50;3.30;;;1.63;;
8757;SDS011;4415;42.152;24.744;2023-10-09T05:41:46;6.60;;;2.10;;
8757;SDS011;4415;42.152;24.744;2023-10-09T05:44:31;2.13;;;1.67;;
8757;SDS011;4415;42.152;24.744;2023-10-09T05:47:16;4.33;;;1.93;;
8757;SDS011;4415;42.152;24.744;2023-10-09T05:49:56;5.43;;;1.87;;
8757;SDS011;4415;42.152;24.744;2023-10-09T05:52:33;11.77;;;5.07;;
8757;SDS011;4415;42.152;24.744;2023-10-09T05:55:05;5.03;;;2.50;;
8757;SDS011;4415;42.152;24.744;2023-10-09T05:57:49;2.47;;;1.50;;
8757;SDS011;4415;42.152;24.744;2023-10-09T06:00:32;3.40;;;2.10;;
8757;SDS011;4415;42.152;24.744;2023-10-09T06:03:17;4.37;;;1.73;;
8757;SDS011;4415;42.152;24.744;2023-10-09T06:05:48;2.07;;;1.63;;
8757;SDS011;4415;42.152;24.744;2023-10-09T06:08:27;3.63;;;1.60;;
8757;SDS011;4415;42.152;24.744;2023-10-09T06:11:13;4.57;;;2.23;;
8757;SDS011;4415;42.152;24.744;2023-10-09T06:13:57;7.87;;;1.80;;
8757;SDS011;4415;42.152;24.744;2023-10-09T06:16:30;2.53;;;1.80;;
8757;SDS011;4415;42.152;24.744;2023-10-09T06:19:12;4.53;;;1.73;;
8757;SDS011;4415;42.152;24.744;2023-10-09T06:21:51;1.47;;;1.33;;
8757;SDS011;4415;42.152;24.744;2023-10-09T06:24:34;3.73;;;1.40;;
8757;SDS011;4415;42.152;24.744;2023-10-09T06:27:18;8.80;;;1.83;;
8757;SDS011;4415;42.152;24.744;2023-10-09T06:29:56;2.87;;;1.77;;
8757;SDS011;4415;42.152;24.744;2023-10-09T06:32:40;4.60;;;2.10;;
8757;SDS011;4415;42.152;24.744;2023-10-09T06:35:16;4.33;;;2.37;;
8757;SDS011;4415;42.152;24.744;2023-10-09T06:37:41;4.67;;;2.10;;
8757;SDS011;4415;42.152;24.744;2023-10-09T06:40:25;3.80;;;1.43;;
8757;SDS011;4415;42.152;24.744;2023-10-09T06:43:09;5.43;;;1.80;;
8757;SDS011;4415;42.152;24.744;2023-10-09T06:45:40;4.63;;;1.90;;
8757;SDS011;4415;42.152;24.744;2023-10-09T06:48:11;1.67;;;1.50;;
8757;SDS011;4415;42.152;24.744;2023-10-09T06:51:07;3.17;;;2.20;;
8757;SDS011;4415;42.152;24.744;2023-10-09T06:53:51;1.87;;;1.57;;
8757;SDS011;4415;42.152;24.744;2023-10-09T06:56:20;3.67;;;1.73;;
8757;SDS011;4415;42.152;24.744;2023-10-09T06:58:57;2.77;;;1.90;;
8757;SDS011;4415;42.152;24.744;2023-10-09T07:01:26;2.40;;;1.50;;
8757;SDS011;4415;42.152;24.744;2023-10-09T07:04:04;3.17;;;1.43;;
8757;SDS011;4415;42.152;24.744;2023-10-09T07:06:47;1.80;;;1.50;;
8757;SDS011;4415;42.152;24.744;2023-10-09T07:09:14;2.50;;;1.70;;
8757;SDS011;4415;42.152;24.744;2023-10-09T07:11:43;2.47;;;2.27;;
8757;SDS011;4415;42.152;24.744;2023-10-09T07:14:12;6.43;;;2.03;;
8757;SDS011;4415;42.152;24.744;2023-10-09T07:16:56;3.87;;;2.13;;
8757;SDS011;4415;42.152;24.744;2023-10-09T07:19:25;2.50;;;1.93;;
8757;SDS011;4415;42.152;24.744;2023-10-09T07:22:00;2.23;;;1.93;;
8757;SDS011;4415;42.152;24.744;2023-10-09T07:24:31;1.60;;;1.50;;
8757;SDS011;4415;42.152;24.744;2023-10-09T07:27:09;4.93;;;1.70;;
8757;SDS011;4415;42.152;24.744;2023-10-09T07:29:37;3.40;;;1.33;;
8757;SDS011;4415;42.152;24.744;2023-10-09T07:32:16;1.70;;;1.60;;
8757;SDS011;4415;42.152;24.744;2023-10-09T07:34:50;2.10;;;1.80;;
8757;SDS011;4415;42.152;24.744;2023-10-09T07:37:21;4.83;;;1.70;;
8757;SDS011;4415;42.152;24.744;2023-10-09T07:39:50;3.57;;;1.67;;
8757;SDS011;4415;42.152;24.744;2023-10-09T07:42:22;2.10;;;1.67;;
8757;SDS011;4415;42.152;24.744;2023-10-09T07:45:09;3.37;;;1.77;;
8757;SDS011;4415;42.152;24.744;2023-10-09T07:47:58;3.37;;;1.80;;
8757;SDS011;4415;42.152;24.744;2023-10-09T07:50:34;1.50;;;1.40;;
8757;SDS011;4415;42.152;24.744;2023-10-09T07:53:09;1.47;;;1.33;;
8757;SDS011;4415;42.152;24.744;2023-10-09T07:55:43;3.57;;;1.70;;
8757;SDS011;4415;42.152;24.744;2023-10-09T07:58:19;3.10;;;1.60;;
8757;SDS011;4415;42.152;24.744;2023-10-09T08:00:50;1.87;;;1.60;;
8757;SDS011;4415;42.152;24.744;2023-10-09T08:03:46;2.17;;;1.97;;
8757;SDS011;4415;42.152;24.744;2023-10-09T08:06:12;4.40;;;2.43;;
8757;SDS011;4415;42.152;24.744;2023-10-09T08:08:56;4.30;;;2.45;;
8757;SDS011;4415;42.152;24.744;2023-10-09T08:11:28;3.00;;;2.47;;
8757;SDS011;4415;42.152;24.744;2023-10-09T08:14:20;4.15;;;2.80;;
8757;SDS011;4415;42.152;24.744;2023-10-09T08:17:00;2.77;;;2.47;;
8757;SDS011;4415;42.152;24.744;2023-10-09T08:19:45;4.77;;;2.70;;
8757;SDS011;4415;42.152;24.744;2023-10-09T08:22:22;5.23;;;2.67;;
8757;SDS011;4415;42.152;24.744;2023-10-09T08:24:47;6.85;;;2.90;;
8757;SDS011;4415;42.152;24.744;2023-10-09T08:27:25;4.03;;;2.22;;
8757;SDS011;4415;42.152;24.744;2023-10-09T08:29:59;6.90;;;6.30;;
8757;SDS011;4415;42.152;24.744;2023-10-09T08:32:45;3.08;;;2.78;;
8757;SDS011;4415;42.152;24.744;2023-10-09T08:37:59;2.85;;;2.22;;
8757;SDS011;4415;42.152;24.744;2023-10-09T08:42:58;3.63;;;2.45;;
8757;SDS011;4415;42.152;24.744;2023-10-09T08:45:34;3.50;;;2.92;;
8757;SDS011;4415;42.152;24.744;2023-10-09T08:48:00;5.47;;;2.65;;
8757;SDS011;4415;42.152;24.744;2023-10-09T08:50:30;4.43;;;2.80;;
8757;SDS011;4415;42.152;24.744;2023-10-09T08:52:55;6.82;;;2.72;;
8757;SDS011;4415;42.152;24.744;2023-10-09T08:55:20;6.00;;;2.90;;
8757;SDS011;4415;42.152;24.744;2023-10-09T08:57:46;4.90;;;2.38;;
8757;SDS011;4415;42.152;24.744;2023-10-09T09:00:18;7.55;;;3.60;;
8757;SDS011;4415;42.152;24.744;2023-10-09T09:02:49;3.60;;;3.03;;
8757;SDS011;4415;42.152;24.744;2023-10-09T09:05:18;10.95;;;2.95;;
8757;SDS011;4415;42.152;24.744;2023-10-09T09:07:45;6.50;;;3.50;;
8757;SDS011;4415;42.152;24.744;2023-10-09T09:10:11;4.03;;;3.63;;
8757;SDS011;4415;42.152;24.744;2023-10-09T09:12:43;3.00;;;2.47;;
8757;SDS011;4415;42.152;24.744;2023-10-09T09:15:14;8.07;;;2.60;;
8757;SDS011;4415;42.152;24.744;2023-10-09T09:17:47;3.85;;;2.70;;
8757;SDS011;4415;42.152;24.744;2023-10-09T09:22:54;3.05;;;2.53;;
8757;SDS011;4415;42.152;24.744;2023-10-09T09:25:39;3.90;;;2.80;;
8757;SDS011;4415;42.152;24.744;2023-10-09T09:28:09;4.32;;;2.53;;
8757;SDS011;4415;42.152;24.744;2023-10-09T09:30:38;3.70;;;2.45;;
8757;SDS011;4415;42.152;24.744;2023-10-09T09:33:27;6.13;;;2.95;;
8757;SDS011;4415;42.152;24.744;2023-10-09T09:36:12;4.88;;;2.95;;
8757;SDS011;4415;42.152;24.744;2023-10-09T09:38:38;8.93;;;2.65;;
8757;SDS011;4415;42.152;24.744;2023-10-09T09:41:18;3.92;;;3.30;;
8757;SDS011;4415;42.152;24.744;2023-10-09T09:43:51;4.68;;;3.20;;
8757;SDS011;4415;42.152;24.744;2023-10-09T09:46:16;6.30;;;2.75;;
8757;SDS011;4415;42.152;24.744;2023-10-09T09:48:43;4.15;;;2.40;;
8757;SDS011;4415;42.152;24.744;2023-10-09T09:51:13;4.95;;;2.63;;
8757;SDS011;4415;42.152;24.744;2023-10-09T09:53:39;5.75;;;2.70;;
8757;SDS011;4415;42.152;24.744;2023-10-09T09:56:05;4.07;;;2.58;;
8757;SDS011;4415;42.152;24.744;2023-10-09T09:58:31;3.72;;;2.53;;
8757;SDS011;4415;42.152;24.744;2023-10-09T10:01:08;8.13;;;2.53;;
8757;SDS011;4415;42.152;24.744;2023-10-09T10:03:40;5.77;;;3.00;;
8757;SDS011;4415;42.152;24.744;2023-10-09T10:06:08;4.73;;;2.23;;
8757;SDS011;4415;42.152;24.744;2023-10-09T10:08:35;4.70;;;2.70;;
8757;SDS011;4415;42.152;24.744;2023-10-09T10:11:04;4.15;;;2.50;;
8757;SDS011;4415;42.152;24.744;2023-10-09T10:16:07;8.02;;;2.50;;
8757;SDS011;4415;42.152;24.744;2023-10-09T10:19:04;5.03;;;2.72;;
8757;SDS011;4415;42.152;24.744;2023-10-09T10:21:35;8.63;;;2.58;;
8757;SDS011;4415;42.152;24.744;2023-10-09T10:29:35;3.90;;;2.40;;
8757;SDS011;4415;42.152;24.744;2023-10-09T10:32:03;4.53;;;2.20;;
8757;SDS011;4415;42.152;24.744;2023-10-09T10:37:19;6.22;;;3.83;;
8757;SDS011;4415;42.152;24.744;2023-10-09T10:39:54;3.80;;;3.00;;
8757;SDS011;4415;42.152;24.744;2023-10-09T10:42:24;3.30;;;3.10;;
8757;SDS011;4415;42.152;24.744;2023-10-09T10:45:02;6.75;;;3.63;;
8757;SDS011;4415;42.152;24.744;2023-10-09T10:47:27;7.13;;;3.13;;
8757;SDS011;4415;42.152;24.744;2023-10-09T10:49:59;4.65;;;2.78;;
8757;SDS011;4415;42.152;24.744;2023-10-09T10:52:32;7.77;;;2.60;;
8757;SDS011;4415;42.152;24.744;2023-10-09T10:55:07;5.47;;;2.38;;
8757;SDS011;4415;42.152;24.744;2023-10-09T10:57:42;5.28;;;2.45;;
8757;SDS011;4415;42.152;24.744;2023-10-09T11:00:29;2.53;;;2.37;;
8757;SDS011;4415;42.152;24.744;2023-10-09T11:03:19;4.35;;;2.95;;
8757;SDS011;4415;42.152;24.744;2023-10-09T11:05:54;8.00;;;3.33;;
8757;SDS011;4415;42.152;24.744;2023-10-09T11:08:23;5.18;;;2.80;;
8757;SDS011;4415;42.152;24.744;2023-10-09T11:10:49;3.90;;;3.10;;
8757;SDS011;4415;42.152;24.744;2023-10-09T11:13:24;4.90;;;2.60;;
8757;SDS011;4415;42.152;24.744;2023-10-09T11:15:56;3.22;;;2.45;;
8757;SDS011;4415;42.152;24.744;2023-10-09T11:18:42;7.63;;;3.10;;
8757;SDS011;4415;42.152;24.744;2023-10-09T11:21:12;5.10;;;2.70;;
8757;SDS011;4415;42.152;24.744;2023-10-09T11:23:38;5.90;;;2.63;;
8757;SDS011;4415;42.152;24.744;2023-10-09T11:26:12;5.70;;;2.73;;
8757;SDS011;4415;42.152;24.744;2023-10-09T11:29:12;3.83;;;2.50;;
8757;SDS011;4415;42.152;24.744;2023-10-09T11:32:02;5.93;;;2.97;;
8757;SDS011;4415;42.152;24.744;2023-10-09T11:34:32;7.27;;;2.80;;
8757;SDS011;4415;42.152;24.744;2023-10-09T11:37:00;10.00;;;2.90;;
8757;SDS011;4415;42.152;24.744;2023-10-09T11:39:27;6.00;;;2.27;;
8757;SDS011;4415;42.152;24.744;2023-10-09T11:44:40;6.33;;;2.60;;
8757;SDS011;4415;42.152;24.744;2023-10-09T11:47:06;5.07;;;2.70;;
8757;SDS011;4415;42.152;24.744;2023-10-09T11:50:01;9.63;;;2.50;;
8757;SDS011;4415;42.152;24.744;2023-10-09T11:52:30;3.60;;;2.50;;
8757;SDS011;4415;42.152;24.744;2023-10-09T11:55:11;5.40;;;2.20;;
8757;SDS011;4415;42.152;24.744;2023-10-09T11:57:40;3.83;;;2.60;;
8757;SDS011;4415;42.152;24.744;2023-10-09T12:00:05;8.00;;;2.60;;
8757;SDS011;4415;42.152;24.744;2023-10-09T12:02:50;3.73;;;2.63;;
8757;SDS011;4415;42.152;24.744;2023-10-09T12:05:15;3.83;;;2.40;;
8757;SDS011;4415;42.152;24.744;2023-10-09T12:07:47;4.90;;;2.30;;
8757;SDS011;4415;42.152;24.744;2023-10-09T12:10:19;7.07;;;2.50;;
8757;SDS011;4415;42.152;24.744;2023-10-09T12:12:49;4.10;;;2.40;;
8757;SDS011;4415;42.152;24.744;2023-10-09T12:15:15;5.07;;;2.60;;
8757;SDS011;4415;42.152;24.744;2023-10-09T12:17:43;3.90;;;2.23;;
8757;SDS011;4415;42.152;24.744;2023-10-09T12:20:09;5.40;;;2.20;;
8757;SDS011;4415;42.152;24.744;2023-10-09T12:22:39;7.47;;;2.60;;
8757;SDS011;4415;42.152;24.744;2023-10-09T12:25:05;5.63;;;2.10;;
8757;SDS011;4415;42.152;24.744;2023-10-09T12:27:34;6.03;;;2.70;;
8757;SDS011;4415;42.152;24.744;2023-10-09T12:29:59;6.17;;;3.30;;
8757;SDS011;4415;42.152;24.744;2023-10-09T12:32:24;5.13;;;3.20;;
8757;SDS011;4415;42.152;24.744;2023-10-09T12:34:50;5.03;;;3.10;;
8757;SDS011;4415;42.152;24.744;2023-10-09T12:37:15;3.50;;;3.10;;
8757;SDS011;4415;42.152;24.744;2023-10-09T12:39:40;3.17;;;2.30;;
8757;SDS011;4415;42.152;24.744;2023-10-09T12:42:06;2.40;;;2.15;;
8757;SDS011;4415;42.152;24.744;2023-10-09T12:44:34;4.37;;;2.53;;
8757;SDS011;4415;42.152;24.744;2023-10-09T12:47:04;2.57;;;2.37;;
8757;SDS011;4415;42.152;24.744;2023-10-09T12:49:30;4.73;;;2.13;;
8757;SDS011;4415;42.152;24.744;2023-10-09T12:51:55;3.37;;;2.30;;
8757;SDS011;4415;42.152;24.744;2023-10-09T12:54:22;6.63;;;2.30;;
8757;SDS011;4415;42.152;24.744;2023-10-09T12:56:56;5.57;;;2.43;;
8757;SDS011;4415;42.152;24.744;2023-10-09T12:59:23;9.10;;;2.73;;
8757;SDS011;4415;42.152;24.744;2023-10-09T13:01:49;5.20;;;2.40;;
8757;SDS011;4415;42.152;24.744;2023-10-09T13:04:18;8.00;;;2.20;;
8757;SDS011;4415;42.152;24.744;2023-10-09T13:06:47;5.27;;;2.50;;
8757;SDS011;4415;42.152;24.744;2023-10-09T13:11:39;3.13;;;2.50;;
8757;SDS011;4415;42.152;24.744;2023-10-09T13:14:06;3.37;;;2.80;;
8757;SDS011;4415;42.152;24.744;2023-10-09T13:16:41;3.20;;;2.20;;
8757;SDS011;4415;42.152;24.744;2023-10-09T13:19:07;3.70;;;2.30;;
8757;SDS011;4415;42.152;24.744;2023-10-09T13:21:35;2.67;;;2.27;;
8757;SDS011;4415;42.152;24.744;2023-10-09T13:24:05;4.20;;;2.50;;
8757;SDS011;4415;42.152;24.744;2023-10-09T13:26:30;4.93;;;2.60;;
8757;SDS011;4415;42.152;24.744;2023-10-09T13:28:58;3.57;;;2.30;;
8757;SDS011;4415;42.152;24.744;2023-10-09T13:31:24;4.37;;;2.37;;
8757;SDS011;4415;42.152;24.744;2023-10-09T13:33:51;4.00;;;2.50;;
8757;SDS011;4415;42.152;24.744;2023-10-09T13:36:20;8.50;;;2.87;;
8757;SDS011;4415;42.152;24.744;2023-10-09T13:39:02;2.80;;;2.60;;
8757;SDS011;4415;42.152;24.744;2023-10-09T13:41:47;3.13;;;2.23;;
8757;SDS011;4415;42.152;24.744;2023-10-09T13:44:13;3.83;;;2.50;;
8757;SDS011;4415;42.152;24.744;2023-10-09T13:46:38;2.87;;;2.53;;
8757;SDS011;4415;42.152;24.744;2023-10-09T13:49:09;15.77;;;3.37;;
8757;SDS011;4415;42.152;24.744;2023-10-09T13:51:38;4.90;;;2.63;;
8757;SDS011;4415;42.152;24.744;2023-10-09T13:54:08;6.30;;;2.30;;
8757;SDS011;4415;42.152;24.744;2023-10-09T13:56:34;5.27;;;2.60;;
8757;SDS011;4415;42.152;24.744;2023-10-09T13:59:04;7.60;;;2.67;;
8757;SDS011;4415;42.152;24.744;2023-10-09T14:01:35;5.97;;;2.60;;
8757;SDS011;4415;42.152;24.744;2023-10-09T14:04:01;5.87;;;2.30;;
8757;SDS011;4415;42.152;24.744;2023-10-09T14:06:31;6.30;;;3.00;;
8757;SDS011;4415;42.152;24.744;2023-10-09T14:08:57;8.60;;;2.50;;
8757;SDS011;4415;42.152;24.744;2023-10-09T14:11:22;2.60;;;2.23;;
8757;SDS011;4415;42.152;24.744;2023-10-09T14:13:47;3.70;;;2.50;;
8757;SDS011;4415;42.152;24.744;2023-10-09T14:16:13;4.83;;;2.33;;
8757;SDS011;4415;42.152;24.744;2023-10-09T14:18:52;8.63;;;2.30;;
8757;SDS011;4415;42.152;24.744;2023-10-09T14:21:23;4.57;;;2.37;;
8757;SDS011;4415;42.152;24.744;2023-10-09T14:23:50;3.33;;;2.03;;
8757;SDS011;4415;42.152;24.744;2023-10-09T14:26:16;6.43;;;2.60;;
8757;SDS011;4415;42.152;24.744;2023-10-09T14:28:43;4.60;;;2.17;;
8757;SDS011;4415;42.152;24.744;2023-10-09T14:31:08;4.43;;;2.47;;
8757;SDS011;4415;42.152;24.744;2023-10-09T14:33:37;2.60;;;2.40;;
8757;SDS011;4415;42.152;24.744;2023-10-09T14:36:03;4.80;;;2.60;;
8757;SDS011;4415;42.152;24.744;2023-10-09T14:38:30;3.63;;;2.20;;
8757;SDS011;4415;42.152;24.744;2023-10-09T14:40:58;3.53;;;2.17;;
8757;SDS011;4415;42.152;24.744;2023-10-09T14:43:25;5.60;;;2.50;;
8757;SDS011;4415;42.152;24.744;2023-10-09T14:45:53;5.53;;;2.40;;
8757;SDS011;4415;42.152;24.744;2023-10-09T14:48:19;4.33;;;2.37;;
8757;SDS011;4415;42.152;24.744;2023-10-09T14:50:48;4.37;;;2.50;;
8757;SDS011;4415;42.152;24.744;2023-10-09T14:53:14;10.83;;;2.93;;
8757;SDS011;4415;42.152;24.744;2023-10-09T14:55:40;8.03;;;2.70;;
8757;SDS011;4415;42.152;24.744;2023-10-09T14:58:06;8.03;;;2.87;;
8757;SDS011;4415;42.152;24.744;2023-10-09T15:00:32;6.17;;;2.47;;
8757;SDS011;4415;42.152;24.744;2023-10-09T15:02:59;4.30;;;2.60;;
8757;SDS011;4415;42.152;24.744;2023-10-09T15:05:24;7.93;;;2.60;;
8757;SDS011;4415;42.152;24.744;2023-10-09T15:07:49;6.10;;;3.00;;
8757;SDS011;4415;42.152;24.744;2023-10-09T15:10:15;5.07;;;2.83;;
8757;SDS011;4415;42.152;24.744;2023-10-09T15:12:41;4.70;;;2.63;;
8757;SDS011;4415;42.152;24.744;2023-10-09T15:15:08;8.30;;;2.73;;
8757;SDS011;4415;42.152;24.744;2023-10-09T15:17:39;6.83;;;2.73;;
8757;SDS011;4415;42.152;24.744;2023-10-09T15:20:06;7.57;;;2.90;;
8757;SDS011;4415;42.152;24.744;2023-10-09T15:22:35;7.67;;;2.50;;
8757;SDS011;4415;42.152;24.744;2023-10-09T15:25:01;5.33;;;2.80;;
8757;SDS011;4415;42.152;24.744;2023-10-09T15:27:27;4.97;;;3.00;;
8757;SDS011;4415;42.152;24.744;2023-10-09T15:29:53;8.57;;;2.83;;
8757;SDS011;4415;42.152;24.744;2023-10-09T15:32:19;4.03;;;3.23;;
8757;SDS011;4415;42.152;24.744;2023-10-09T15:34:47;7.80;;;2.97;;
8757;SDS011;4415;42.152;24.744;2023-10-09T15:37:13;7.67;;;2.80;;
8757;SDS011;4415;42.152;24.744;2023-10-09T15:39:38;6.77;;;3.10;;
8757;SDS011;4415;42.152;24.744;2023-10-09T15:42:04;5.97;;;3.17;;
8757;SDS011;4415;42.152;24.744;2023-10-09T15:44:31;5.93;;;3.03;;
8757;SDS011;4415;42.152;24.744;2023-10-09T15:46:59;4.10;;;2.50;;
8757;SDS011;4415;42.152;24.744;2023-10-09T15:49:25;3.63;;;2.60;;
8757;SDS011;4415;42.152;24.744;2023-10-09T15:51:52;4.53;;;2.67;;